Time;durP1;ratioP1;P1;durP2;ratioP2;P2;SDS_P1;SDS_P2;PMS_P1;PMS_P2;Temp;Humidity;BMP_temperature;BMP_pressure;BME280_temperature;BME280_humidity;BME280_pressure;Samples;Min_cycle;Max_cycle;Signal;HPM_P1;HPM_P2
2023/09/12 00:01:06;;;;;;;16.67;8.00;;;25.10;82.00;;;;;;5087346;28;20051;-53
2023/09/12 00:03:31;;;;;;;19.30;8.20;;;25.10;82.10;;;;;;5069446;28;20032;-53
2023/09/12 00:05:58;;;;;;;16.20;7.63;;;25.10;82.10;;;;;;5069175;28;20549;-53
2023/09/12 00:08:23;;;;;;;18.42;8.93;;;25.10;82.80;;;;;;5069350;28;20105;-53
2023/09/12 00:11:02;;;;;;;14.93;9.05;;;25.10;82.20;;;;;;5052443;28;20025;-53
2023/09/12 00:13:28;;;;;;;19.90;8.02;;;25.10;82.40;;;;;;5052433;28;20075;-53
2023/09/12 00:15:54;;;;;;;16.77;8.85;;;25.00;82.30;;;;;;5068580;28;20435;-53
2023/09/12 00:18:19;;;;;;;19.25;8.65;;;25.00;82.30;;;;;;5069011;28;20138;-53
2023/09/12 00:20:45;;;;;;;17.35;7.90;;;25.00;82.40;;;;;;5068912;28;20029;-53
2023/09/12 00:23:10;;;;;;;13.65;8.02;;;25.00;82.40;;;;;;5086845;28;20067;-53
2023/09/12 00:25:36;;;;;;;11.85;8.07;;;24.90;82.50;;;;;;5068751;28;20025;-53
2023/09/12 00:28:01;;;;;;;13.38;8.40;;;24.90;82.60;;;;;;5068798;28;20033;-53
2023/09/12 00:30:27;;;;;;;12.38;7.18;;;24.90;82.80;;;;;;5086576;28;20055;-53
2023/09/12 00:32:52;;;;;;;16.10;8.57;;;24.90;82.80;;;;;;5068806;28;20377;-53
2023/09/12 00:35:18;;;;;;;11.68;7.75;;;24.90;82.90;;;;;;5035532;28;20020;-53
2023/09/12 00:37:43;;;;;;;14.52;7.28;;;24.90;83.00;;;;;;5086485;28;20045;-53
2023/09/12 00:40:10;;;;;;;13.05;8.02;;;24.80;83.00;;;;;;5086557;28;20056;-53
2023/09/12 00:42:35;;;;;;;15.05;7.95;;;24.80;83.00;;;;;;5086082;28;20047;-53
2023/09/12 00:45:01;;;;;;;12.82;7.85;;;24.80;83.10;;;;;;5087402;28;20088;-53
2023/09/12 00:47:27;;;;;;;14.43;7.82;;;24.80;83.20;;;;;;5086963;28;20408;-53
2023/09/12 00:49:52;;;;;;;16.90;7.20;;;24.80;83.20;;;;;;5051596;28;20056;-51
2023/09/12 00:52:18;;;;;;;13.40;7.90;;;24.70;83.80;;;;;;5086002;28;20059;-51
2023/09/12 00:54:43;;;;;;;9.18;7.43;;;24.80;83.20;;;;;;5035073;28;20056;-53
2023/09/12 00:57:09;;;;;;;9.95;7.68;;;24.70;83.20;;;;;;5051769;28;20100;-53
2023/09/12 00:59:35;;;;;;;17.48;8.20;;;24.70;83.30;;;;;;5051727;28;20036;-53
2023/09/12 01:02:00;;;;;;;17.35;8.20;;;24.70;83.40;;;;;;5035042;28;20048;-53
2023/09/12 01:04:26;;;;;;;11.25;8.00;;;24.70;83.40;;;;;;5086201;28;20154;-53
2023/09/12 01:06:52;;;;;;;10.73;7.03;;;24.60;83.50;;;;;;5051718;28;20063;-53
2023/09/12 01:09:17;;;;;;;13.48;7.63;;;24.60;83.60;;;;;;5086200;28;20067;-53
2023/09/12 01:11:43;;;;;;;10.45;7.30;;;24.60;83.70;;;;;;5051639;28;20037;-53
2023/09/12 01:14:08;;;;;;;11.70;7.32;;;24.60;83.80;;;;;;5051577;28;20075;-53
2023/09/12 01:16:34;;;;;;;9.82;7.60;;;24.60;83.90;;;;;;5051432;28;20041;-53
2023/09/12 01:18:59;;;;;;;9.98;7.55;;;24.60;83.90;;;;;;5068150;28;20032;-53
2023/09/12 01:21:36;;;;;;;12.32;7.78;;;24.60;83.90;;;;;;5086083;28;20035;-53
2023/09/12 01:24:20;;;;;;;13.55;7.28;;;24.50;83.90;;;;;;5068089;28;20041;-53
2023/09/12 01:27:04;;;;;;;11.73;7.38;;;24.50;84.00;;;;;;5067876;28;20041;-53
2023/09/12 01:29:31;;;;;;;11.38;7.90;;;24.50;84.10;;;;;;5085925;28;20040;-52
2023/09/12 01:31:56;;;;;;;10.70;7.75;;;24.50;84.00;;;;;;5067958;28;20064;-53
2023/09/12 01:34:24;;;;;;;11.02;7.13;;;24.50;84.20;;;;;;5051377;28;20033;-53
2023/09/12 01:36:50;;;;;;;10.80;6.85;;;24.50;84.40;;;;;;5067923;28;20148;-53
2023/09/12 01:39:15;;;;;;;10.38;6.65;;;24.40;84.40;;;;;;5085940;28;20033;-53
2023/09/12 01:41:42;;;;;;;13.57;7.25;;;24.50;84.50;;;;;;5085870;28;20088;-53
2023/09/12 01:44:08;;;;;;;10.38;7.65;;;24.40;84.40;;;;;;5034645;28;20033;-53
2023/09/12 01:46:34;;;;;;;10.82;7.50;;;24.40;84.40;;;;;;5034666;28;20040;-53
2023/09/12 01:48:59;;;;;;;10.48;7.00;;;24.40;84.50;;;;;;5067744;28;20476;-53
2023/09/12 01:51:25;;;;;;;13.57;7.60;;;24.40;84.50;;;;;;5051052;28;20052;-53
2023/09/12 01:53:50;;;;;;;11.63;7.80;;;24.40;84.60;;;;;;5068029;28;20032;-53
2023/09/12 01:56:16;;;;;;;9.45;7.38;;;24.40;84.70;;;;;;5054974;28;20040;-53
2023/09/12 01:58:41;;;;;;;8.95;7.30;;;24.40;84.70;;;;;;5054907;28;20059;-53
2023/09/12 02:01:07;;;;;;;8.98;7.50;;;24.40;84.80;;;;;;5071579;28;20093;-53
2023/09/12 02:03:32;;;;;;;9.68;7.25;;;24.30;84.80;;;;;;5071561;28;20093;-53
2023/09/12 02:05:58;;;;;;;8.77;7.03;;;24.40;84.90;;;;;;5071210;28;20036;-53
2023/09/12 02:08:23;;;;;;;13.13;7.40;;;24.30;84.90;;;;;;5071222;28;20036;-53
2023/09/12 02:10:49;;;;;;;14.00;7.13;;;24.30;84.90;;;;;;5089368;28;20029;-53
2023/09/12 02:13:15;;;;;;;11.43;7.65;;;24.30;85.10;;;;;;5071348;28;20052;-53
2023/09/12 02:15:40;;;;;;;9.57;7.03;;;24.30;85.20;;;;;;5089291;28;20044;-53
2023/09/12 02:18:06;;;;;;;8.82;7.07;;;24.20;85.30;;;;;;5088912;28;20041;-53
2023/09/12 02:20:32;;;;;;;11.85;7.22;;;24.20;85.30;;;;;;5054748;28;20025;-53
2023/09/12 02:22:57;;;;;;;9.50;6.63;;;24.20;85.30;;;;;;5054678;28;20032;-53
2023/09/12 02:25:23;;;;;;;12.60;7.30;;;24.20;85.40;;;;;;5088999;28;20037;-52
2023/09/12 02:27:48;;;;;;;12.85;7.05;;;24.20;85.50;;;;;;5070960;28;20044;-53
2023/09/12 02:30:14;;;;;;;10.55;7.07;;;24.20;85.60;;;;;;5070888;28;20128;-53
2023/09/12 02:32:42;;;;;;;9.77;7.32;;;24.20;85.70;;;;;;5070907;28;20037;-53
2023/09/12 02:35:07;;;;;;;8.00;6.68;;;24.10;85.60;;;;;;5054259;28;20060;-53
2023/09/12 02:37:33;;;;;;;8.13;7.03;;;24.10;85.60;;;;;;5070721;28;20052;-53
2023/09/12 02:39:58;;;;;;;8.70;6.53;;;24.10;85.70;;;;;;5088833;28;20040;-53
2023/09/12 02:42:25;;;;;;;9.80;7.75;;;24.10;85.80;;;;;;5070728;28;20047;-52
2023/09/12 02:44:52;;;;;;;8.32;7.53;;;24.10;85.90;;;;;;5070817;28;20040;-53
2023/09/12 02:47:17;;;;;;;9.40;7.30;;;24.10;85.90;;;;;;5088593;28;20033;-53
2023/09/12 02:49:43;;;;;;;9.35;7.50;;;24.00;85.90;;;;;;5070491;28;20506;-53
2023/09/12 02:52:09;;;;;;;10.43;7.20;;;24.00;85.90;;;;;;5070618;28;20047;-53
2023/09/12 02:54:34;;;;;;;8.13;7.32;;;24.00;85.90;;;;;;5088332;28;20037;-53
2023/09/12 02:57:00;;;;;;;12.50;7.43;;;24.00;85.90;;;;;;5070528;28;20071;-53
2023/09/12 02:59:25;;;;;;;9.82;7.07;;;24.00;85.90;;;;;;5088363;28;20040;-53
2023/09/12 03:01:51;;;;;;;8.23;7.30;;;24.00;86.00;;;;;;5070409;28;20044;-53
2023/09/12 03:04:16;;;;;;;8.40;7.60;;;24.00;86.10;;;;;;5070605;28;20033;-57
2023/09/12 03:06:43;;;;;;;9.15;7.38;;;24.00;86.10;;;;;;5070352;28;20040;-57
2023/09/12 03:09:09;;;;;;;10.85;7.40;;;23.90;86.00;;;;;;5070375;28;20116;-57
2023/09/12 03:11:35;;;;;;;8.40;7.50;;;23.90;86.10;;;;;;5088173;28;20040;-57
2023/09/12 03:14:00;;;;;;;11.27;7.40;;;23.90;86.10;;;;;;5088196;28;20048;-57
2023/09/12 03:16:26;;;;;;;8.75;7.93;;;23.90;86.10;;;;;;5069928;28;20436;-57
2023/09/12 03:18:51;;;;;;;9.75;7.55;;;23.90;86.20;;;;;;5070156;28;20465;-57
2023/09/12 03:21:17;;;;;;;13.18;7.75;;;23.80;86.20;;;;;;5070256;28;20491;-57
2023/09/12 03:23:42;;;;;;;9.13;7.25;;;23.90;86.30;;;;;;5087783;28;20028;-57
2023/09/12 03:26:08;;;;;;;15.77;7.57;;;23.80;86.40;;;;;;5069911;28;20393;-57
2023/09/12 03:28:34;;;;;;;8.07;7.28;;;23.80;86.50;;;;;;5053326;28;20031;-57
2023/09/12 03:31:13;;;;;;;9.45;7.78;;;23.70;86.50;;;;;;5069897;28;20052;-57
2023/09/12 03:33:38;;;;;;;11.15;7.53;;;23.80;87.20;;;;;;5053443;28;20043;-57
2023/09/12 03:36:06;;;;;;;9.23;7.22;;;23.70;86.60;;;;;;5086774;28;20136;-57
2023/09/12 03:38:32;;;;;;;7.97;7.15;;;23.70;86.70;;;;;;5069833;28;20484;-57
2023/09/12 03:40:57;;;;;;;9.38;7.57;;;23.70;86.80;;;;;;5069557;28;20096;-57
2023/09/12 03:43:23;;;;;;;8.60;7.75;;;23.70;86.80;;;;;;5069383;28;20123;-57
2023/09/12 03:45:49;;;;;;;8.30;7.25;;;23.70;86.80;;;;;;5087739;28;20047;-57
2023/09/12 03:48:14;;;;;;;7.78;6.93;;;23.70;86.80;;;;;;5069511;28;20049;-57
2023/09/12 03:50:40;;;;;;;8.32;7.53;;;23.70;86.80;;;;;;5087535;28;20208;-57
2023/09/12 03:53:05;;;;;;;10.40;7.15;;;23.70;86.90;;;;;;5087428;28;20115;-57
2023/09/12 03:55:31;;;;;;;8.48;7.68;;;23.70;86.90;;;;;;5069369;28;20032;-58
2023/09/12 03:57:57;;;;;;;10.05;7.57;;;23.70;87.00;;;;;;5069406;28;20032;-57
2023/09/12 04:00:22;;;;;;;7.70;7.00;;;23.60;87.00;;;;;;5087220;28;20040;-57
2023/09/12 04:02:48;;;;;;;9.45;7.40;;;23.60;87.00;;;;;;5087137;28;20033;-57
2023/09/12 04:05:14;;;;;;;7.93;7.22;;;23.70;87.10;;;;;;5069320;28;20096;-57
2023/09/12 04:07:39;;;;;;;7.97;7.22;;;23.60;87.10;;;;;;5052613;28;20048;-57
2023/09/12 04:10:05;;;;;;;8.80;7.35;;;23.60;87.10;;;;;;5069232;28;20048;-57
2023/09/12 04:12:31;;;;;;;8.52;7.68;;;23.60;87.30;;;;;;5068780;28;20056;-57
2023/09/12 04:14:56;;;;;;;9.77;7.53;;;23.60;87.30;;;;;;5052398;28;20047;-57
2023/09/12 04:17:22;;;;;;;8.93;7.85;;;23.60;87.30;;;;;;5068332;28;20119;-58
2023/09/12 04:19:47;;;;;;;9.68;7.60;;;23.50;87.30;;;;;;5086924;28;20080;-57
2023/09/12 04:22:13;;;;;;;9.35;8.00;;;23.60;87.40;;;;;;5086775;28;20036;-57
2023/09/12 04:24:39;;;;;;;8.57;7.78;;;23.50;87.40;;;;;;5086733;28;20033;-57
2023/09/12 04:27:04;;;;;;;8.13;7.40;;;23.50;87.50;;;;;;5068951;28;20131;-58
2023/09/12 04:29:33;;;;;;;8.50;7.55;;;23.50;87.50;;;;;;5069084;28;20036;-57
2023/09/12 04:31:59;;;;;;;9.38;8.38;;;23.50;87.60;;;;;;5052467;28;20101;-57
2023/09/12 04:34:25;;;;;;;12.88;7.93;;;23.50;87.70;;;;;;5068809;28;20028;-57
2023/09/12 04:36:52;;;;;;;9.40;8.15;;;23.40;87.70;;;;;;5068725;28;20048;-57
2023/09/12 04:39:17;;;;;;;9.30;8.38;;;23.40;87.80;;;;;;5068484;28;20554;-57
2023/09/12 04:41:43;;;;;;;12.55;7.70;;;23.40;87.80;;;;;;5068733;28;20036;-57
2023/09/12 04:44:08;;;;;;;9.60;7.78;;;23.20;87.70;;;;;;5068498;28;20062;-58
2023/09/12 04:46:34;;;;;;;12.23;8.52;;;23.40;87.90;;;;;;5068505;28;20043;-57
2023/09/12 04:48:59;;;;;;;10.63;7.40;;;23.40;87.90;;;;;;5068210;28;20044;-56
2023/09/12 04:51:26;;;;;;;8.80;7.60;;;23.40;87.90;;;;;;5051541;28;20489;-57
2023/09/12 04:53:52;;;;;;;11.30;7.93;;;23.30;88.00;;;;;;5068764;28;20048;-57
2023/09/12 04:56:18;;;;;;;9.23;8.18;;;23.30;88.00;;;;;;5051500;28;20044;-57
2023/09/12 04:58:43;;;;;;;12.88;8.00;;;23.30;88.00;;;;;;5086422;28;20016;-57
2023/09/12 05:01:09;;;;;;;8.95;7.45;;;23.40;88.10;;;;;;5086271;28;20473;-57
2023/09/12 05:03:35;;;;;;;8.63;7.80;;;23.40;88.10;;;;;;5086152;28;20024;-57
2023/09/12 05:06:00;;;;;;;11.55;8.00;;;23.30;88.10;;;;;;5051586;28;20040;-57
2023/09/12 05:08:26;;;;;;;10.18;8.00;;;23.30;88.20;;;;;;5068229;28;20047;-57
2023/09/12 05:10:52;;;;;;;10.35;8.02;;;23.30;88.20;;;;;;5085983;28;20029;-57
2023/09/12 05:13:17;;;;;;;9.68;8.40;;;23.30;88.30;;;;;;5068163;28;20370;-57
2023/09/12 05:15:43;;;;;;;9.48;8.38;;;23.30;88.50;;;;;;5085839;28;20043;-57
2023/09/12 05:18:09;;;;;;;9.98;8.70;;;23.30;88.50;;;;;;5086126;28;20033;-57
2023/09/12 05:20:34;;;;;;;10.63;7.85;;;23.30;88.50;;;;;;5086249;28;20088;-57
2023/09/12 05:23:00;;;;;;;9.65;8.20;;;23.30;88.50;;;;;;5086375;28;20390;-57
2023/09/12 05:25:26;;;;;;;13.80;8.15;;;23.20;88.40;;;;;;5051628;28;20431;-57
2023/09/12 05:27:52;;;;;;;9.60;8.32;;;23.20;88.40;;;;;;5051658;28;20036;-57
2023/09/12 05:30:18;;;;;;;10.63;8.05;;;23.20;88.50;;;;;;5088933;28;20044;-57
2023/09/12 05:32:43;;;;;;;10.10;8.10;;;23.20;88.60;;;;;;5090187;28;20062;-57
2023/09/12 05:35:09;;;;;;;17.00;8.68;;;23.20;89.30;;;;;;5072192;28;20037;-57
2023/09/12 05:37:34;;;;;;;12.65;8.45;;;23.20;88.70;;;;;;5055616;28;20040;-57
2023/09/12 05:40:00;;;;;;;11.57;8.13;;;23.20;88.70;;;;;;5071888;28;20037;-58
2023/09/12 05:42:25;;;;;;;11.77;7.75;;;23.20;88.70;;;;;;5089964;28;20046;-57
2023/09/12 05:44:53;;;;;;;10.27;7.97;;;23.20;88.80;;;;;;5089713;28;20037;-57
2023/09/12 05:47:19;;;;;;;11.95;7.90;;;23.20;88.70;;;;;;5071985;28;20044;-57
2023/09/12 05:49:45;;;;;;;13.77;8.15;;;23.20;88.60;;;;;;5071711;28;20036;-57
2023/09/12 05:52:11;;;;;;;17.52;9.48;;;23.20;88.80;;;;;;5071776;28;20052;-57
2023/09/12 05:54:36;;;;;;;21.05;9.82;;;23.20;89.50;;;;;;5089485;28;20100;-57
2023/09/12 05:57:02;;;;;;;14.40;9.35;;;23.10;90.10;;;;;;5078955;28;20048;-57
2023/09/12 05:59:28;;;;;;;19.60;9.57;;;23.10;90.30;;;;;;5069473;28;20040;-57
2023/09/12 06:01:53;;;;;;;21.38;10.05;;;23.00;90.50;;;;;;5069446;28;20029;-57
2023/09/12 06:04:19;;;;;;;16.45;10.32;;;23.00;90.60;;;;;;5087579;28;20037;-57
2023/09/12 06:06:46;;;;;;;22.58;10.38;;;22.90;91.00;;;;;;5053015;28;20043;-57
2023/09/12 06:09:11;;;;;;;25.38;10.48;;;22.80;91.30;;;;;;5087283;28;20041;-57
2023/09/12 06:11:37;;;;;;;14.30;10.48;;;22.80;91.60;;;;;;5088029;28;20083;-57
2023/09/12 06:14:02;;;;;;;16.52;10.40;;;22.70;91.90;;;;;;5087643;28;20049;-57
2023/09/12 06:16:29;;;;;;;15.18;10.13;;;22.60;92.20;;;;;;5071103;28;20037;-57
2023/09/12 06:18:54;;;;;;;21.13;10.23;;;22.60;92.40;;;;;;5089019;28;20078;-57
2023/09/12 06:21:21;;;;;;;15.73;10.60;;;22.50;92.60;;;;;;5088751;28;20036;-57
2023/09/12 06:24:09;;;;;;;16.08;10.02;;;22.40;92.80;;;;;;5087279;28;20433;-57
2023/09/12 06:26:35;;;;;;;22.27;10.90;;;22.40;93.00;;;;;;5086930;28;20484;-57
2023/09/12 06:29:01;;;;;;;17.13;10.75;;;22.40;93.20;;;;;;5070505;28;20062;-57
2023/09/12 06:31:26;;;;;;;21.63;10.80;;;22.40;93.40;;;;;;5069104;28;20032;-57
2023/09/12 06:33:52;;;;;;;18.40;10.68;;;22.40;93.50;;;;;;5050991;28;20105;-56
2023/09/12 06:36:17;;;;;;;22.02;10.15;;;22.30;93.60;;;;;;5059416;28;20063;-57
2023/09/12 06:38:43;;;;;;;24.13;11.13;;;22.30;93.70;;;;;;5070622;28;20032;-57
2023/09/12 06:41:08;;;;;;;23.30;10.93;;;22.30;93.90;;;;;;5087139;28;20049;-57
2023/09/12 06:43:34;;;;;;;30.95;11.20;;;22.30;94.00;;;;;;5068054;28;20020;-57
2023/09/12 06:45:59;;;;;;;69.45;15.57;;;22.30;94.10;;;;;;5076778;28;20037;-57
2023/09/12 06:48:25;;;;;;;45.58;13.50;;;22.30;94.20;;;;;;5086466;28;20075;-57
2023/09/12 06:50:50;;;;;;;34.45;11.80;;;22.30;94.20;;;;;;5053348;28;20062;-57
2023/09/12 06:53:16;;;;;;;46.20;12.20;;;22.30;94.30;;;;;;5087916;28;20039;-57
2023/09/12 06:55:41;;;;;;;67.55;13.15;;;22.30;94.30;;;;;;5060337;28;20048;-57
2023/09/12 06:58:07;;;;;;;42.00;13.38;;;22.30;94.50;;;;;;5066621;28;20036;-57
2023/09/12 07:00:33;;;;;;;36.47;11.93;;;22.30;94.50;;;;;;5088304;28;20028;-57
2023/09/12 07:02:58;;;;;;;39.67;12.75;;;22.30;94.60;;;;;;5069867;28;20048;-57
2023/09/12 07:05:24;;;;;;;33.33;12.40;;;22.40;94.60;;;;;;5088137;28;20032;-57
2023/09/12 07:07:49;;;;;;;26.00;11.60;;;22.40;94.60;;;;;;5087851;28;20093;-57
2023/09/12 07:10:15;;;;;;;87.28;17.00;;;22.40;94.90;;;;;;5069880;28;20059;-56
2023/09/12 07:12:41;;;;;;;31.45;12.70;;;22.40;94.90;;;;;;5086600;28;20087;-57
2023/09/12 07:15:06;;;;;;;34.17;12.23;;;22.40;95.00;;;;;;5086544;28;20565;-57
2023/09/12 07:17:32;;;;;;;47.88;13.88;;;22.40;95.00;;;;;;5087844;28;20067;-57
2023/09/12 07:19:58;;;;;;;41.60;12.98;;;22.40;95.20;;;;;;5069817;28;20044;-57
2023/09/12 07:22:23;;;;;;;36.60;11.60;;;22.50;95.10;;;;;;5087855;28;20043;-57
2023/09/12 07:24:49;;;;;;;45.80;12.70;;;22.50;95.20;;;;;;5053142;28;20043;-57
2023/09/12 07:27:14;;;;;;;38.90;11.68;;;22.50;95.30;;;;;;5069970;28;20064;-57
2023/09/12 07:29:40;;;;;;;39.83;12.18;;;22.50;95.40;;;;;;5087082;28;20036;-57
2023/09/12 07:32:05;;;;;;;38.00;12.70;;;22.50;95.30;;;;;;5068983;28;20036;-57
2023/09/12 07:34:31;;;;;;;27.75;10.40;;;22.50;95.30;;;;;;5069004;28;20032;-57
2023/09/12 07:36:57;;;;;;;23.30;10.57;;;22.60;95.30;;;;;;5051086;28;20409;-57
2023/09/12 07:39:22;;;;;;;28.38;10.55;;;22.60;95.40;;;;;;5067778;28;20476;-57
2023/09/12 07:41:48;;;;;;;34.45;11.00;;;22.60;95.50;;;;;;5087032;28;20033;-57
2023/09/12 07:44:15;;;;;;;30.30;11.07;;;22.60;95.40;;;;;;5067765;28;20028;-57
2023/09/12 07:46:41;;;;;;;35.67;10.60;;;22.70;95.30;;;;;;5086042;28;20040;-57
2023/09/12 07:49:08;;;;;;;22.83;10.10;;;22.70;95.10;;;;;;5068641;28;20037;-57
2023/09/12 07:51:34;;;;;;;21.77;9.80;;;22.70;95.30;;;;;;5086472;28;20044;-57
2023/09/12 07:54:00;;;;;;;27.00;10.90;;;22.70;95.30;;;;;;5069205;28;20377;-57
2023/09/12 07:56:25;;;;;;;19.50;10.32;;;22.80;95.20;;;;;;5086872;28;20032;-57
2023/09/12 07:58:51;;;;;;;28.05;10.82;;;22.80;95.30;;;;;;5086877;28;20032;-57
2023/09/12 08:01:17;;;;;;;27.55;10.98;;;22.80;95.20;;;;;;5087100;28;20077;-57
2023/09/12 08:03:42;;;;;;;32.50;11.00;;;22.90;95.40;;;;;;5069056;28;20040;-57
2023/09/12 08:06:08;;;;;;;36.65;11.35;;;22.90;95.40;;;;;;5076550;28;20041;-57
2023/09/12 08:08:34;;;;;;;34.60;11.93;;;22.90;95.10;;;;;;5067049;28;20044;-57
2023/09/12 08:10:59;;;;;;;44.78;11.43;;;23.00;95.10;;;;;;5085852;28;20048;-57
2023/09/12 08:13:28;;;;;;;43.97;11.50;;;23.00;95.10;;;;;;5072204;28;20048;-57
2023/09/12 08:15:54;;;;;;;41.20;11.00;;;23.00;95.20;;;;;;5051640;28;20051;-57
2023/09/12 08:18:20;;;;;;;38.40;10.60;;;23.10;94.90;;;;;;5085601;28;20044;-57
2023/09/12 08:20:45;;;;;;;31.10;10.95;;;23.10;95.00;;;;;;5084661;28;20036;-57
2023/09/12 08:23:11;;;;;;;25.17;10.90;;;23.20;95.00;;;;;;5068683;28;20071;-57
2023/09/12 08:25:37;;;;;;;25.08;9.60;;;23.20;95.00;;;;;;5080927;28;20044;-57
2023/09/12 08:28:02;;;;;;;45.78;11.60;;;23.20;94.90;;;;;;5085808;28;20111;-57
2023/09/12 08:30:29;;;;;;;24.60;10.18;;;23.20;95.10;;;;;;5057019;28;20066;-57
2023/09/12 08:32:55;;;;;;;31.90;11.07;;;23.20;95.20;;;;;;5086595;28;20052;-57
2023/09/12 08:35:21;;;;;;;20.70;9.52;;;23.30;95.20;;;;;;5085242;28;20067;-57
2023/09/12 08:37:47;;;;;;;26.10;10.70;;;23.30;95.30;;;;;;5085204;28;20036;-57
2023/09/12 08:40:13;;;;;;;30.88;9.90;;;23.30;95.10;;;;;;5068249;28;20032;-57
2023/09/12 08:42:43;;;;;;;20.00;9.50;;;23.30;95.00;;;;;;5086264;28;20083;-57
2023/09/12 08:45:13;;;;;;;37.95;10.95;;;23.30;94.80;;;;;;5068289;28;20033;-57
2023/09/12 08:47:40;;;;;;;39.45;11.35;;;23.30;95.10;;;;;;5044808;28;20065;-57
2023/09/12 08:50:07;;;;;;;29.13;9.63;;;23.40;95.20;;;;;;5081948;28;20051;-57
2023/09/12 08:52:33;;;;;;;28.15;10.20;;;23.40;95.10;;;;;;5070602;28;20063;-57
2023/09/12 08:54:58;;;;;;;36.95;10.43;;;23.40;94.80;;;;;;5072918;28;20040;-57
2023/09/12 08:57:24;;;;;;;35.97;10.80;;;23.50;94.60;;;;;;5049847;28;20122;-56
2023/09/12 08:59:49;;;;;;;27.60;10.27;;;23.50;94.50;;;;;;5053008;28;20032;-57
2023/09/12 09:02:15;;;;;;;36.95;10.80;;;23.50;94.30;;;;;;5050217;28;20062;-57
2023/09/12 09:04:41;;;;;;;36.38;10.88;;;23.50;94.20;;;;;;5049178;28;20028;-57
2023/09/12 09:07:06;;;;;;;37.35;10.43;;;23.60;94.10;;;;;;5065635;28;20040;-57
2023/09/12 09:09:33;;;;;;;88.72;15.02;;;23.60;94.00;;;;;;5049422;28;20043;-56
2023/09/12 09:11:58;;;;;;;44.60;11.70;;;23.60;93.90;;;;;;5073539;28;20414;-56
2023/09/12 09:14:24;;;;;;;33.35;10.80;;;23.70;93.80;;;;;;5083703;28;20032;-57
2023/09/12 09:16:50;;;;;;;23.42;10.23;;;23.70;93.70;;;;;;5053496;28;20068;-56
2023/09/12 09:19:16;;;;;;;21.83;9.52;;;23.70;93.60;;;;;;5084464;28;20096;-57
2023/09/12 09:21:42;;;;;;;33.33;11.20;;;23.70;93.40;;;;;;5065027;28;20044;-56
2023/09/12 09:24:08;;;;;;;28.95;10.35;;;23.80;93.30;;;;;;5082589;28;20045;-57
2023/09/12 09:26:44;;;;;;;31.55;10.80;;;23.80;93.10;;;;;;5065039;28;20044;-57
2023/09/12 09:29:13;;;;;;;26.50;9.43;;;23.90;93.00;;;;;;5059169;28;20041;-57
2023/09/12 09:31:43;;;;;;;39.85;10.57;;;23.90;92.80;;;;;;5050424;28;20145;-57
2023/09/12 09:34:15;;;;;;;52.15;12.10;;;24.00;92.70;;;;;;5067241;28;20041;-56
2023/09/12 09:36:42;;;;;;;34.97;11.18;;;24.00;92.60;;;;;;5066855;28;20067;-57
2023/09/12 09:39:09;;;;;;;39.10;10.98;;;24.10;92.30;;;;;;5079383;28;20037;-56
2023/09/12 09:41:34;;;;;;;66.00;14.13;;;24.20;92.20;;;;;;5047182;28;20442;-57
2023/09/12 09:44:00;;;;;;;53.95;13.10;;;24.20;92.10;;;;;;5048964;28;20056;-57
2023/09/12 09:46:26;;;;;;;43.22;12.70;;;24.30;91.90;;;;;;5061864;28;20460;-57
2023/09/12 09:48:52;;;;;;;38.28;12.30;;;24.30;91.80;;;;;;5048087;28;20033;-57
2023/09/12 09:51:17;;;;;;;59.85;13.20;;;24.40;91.70;;;;;;5063417;28;20037;-57
2023/09/12 09:53:43;;;;;;;55.60;13.95;;;24.40;91.40;;;;;;5066584;28;20033;-57
2023/09/12 09:56:15;;;;;;;63.85;14.13;;;24.50;91.40;;;;;;5045451;28;20073;-57
2023/09/12 09:58:59;;;;;;;95.35;15.00;;;24.50;91.30;;;;;;5060671;28;20040;-57
2023/09/12 10:01:28;;;;;;;80.32;14.23;;;24.60;91.00;;;;;;5039426;28;20037;-57
2023/09/12 10:03:57;;;;;;;67.05;14.55;;;24.60;91.00;;;;;;5081121;28;21607;-57
2023/09/12 10:06:22;;;;;;;82.47;15.00;;;24.60;91.00;;;;;;5048097;28;20072;-57
2023/09/12 10:08:52;;;;;;;81.50;15.13;;;24.70;90.90;;;;;;5053940;28;20040;-57
2023/09/12 10:11:18;;;;;;;89.18;15.32;;;24.70;90.80;;;;;;5064879;28;20037;-57
2023/09/12 10:13:50;;;;;;;82.18;16.00;;;24.80;90.60;;;;;;5066865;28;20037;-56
2023/09/12 10:16:16;;;;;;;77.70;15.75;;;24.80;90.50;;;;;;5082841;28;20048;-57
2023/09/12 10:18:49;;;;;;;89.47;15.57;;;24.90;90.30;;;;;;5049694;28;20162;-57
2023/09/12 10:21:16;;;;;;;58.17;13.45;;;24.90;90.20;;;;;;5070807;28;20047;-57
2023/09/12 10:23:44;;;;;;;61.20;13.40;;;24.90;89.80;;;;;;5050222;28;20063;-56
2023/09/12 10:26:11;;;;;;;59.80;14.10;;;24.90;89.30;;;;;;5067658;28;20550;-56
2023/09/12 10:28:38;;;;;;;52.03;12.75;;;25.00;89.20;;;;;;5042667;28;20037;-56
2023/09/12 10:31:04;;;;;;;61.67;13.80;;;25.00;88.60;;;;;;5067517;28;20049;-57
2023/09/12 10:33:31;;;;;;;56.08;12.90;;;25.10;88.70;;;;;;5066585;28;20040;-57
2023/09/12 10:35:58;;;;;;;53.70;12.57;;;25.10;87.80;;;;;;5085584;28;20044;-57
2023/09/12 10:38:23;;;;;;;57.67;13.43;;;25.10;87.70;;;;;;5068667;28;20480;-57
2023/09/12 10:40:49;;;;;;;54.83;13.65;;;25.10;87.20;;;;;;5070180;28;20045;-57
2023/09/12 10:43:14;;;;;;;53.00;14.00;;;25.20;87.10;;;;;;5054672;28;20064;-57
2023/09/12 10:45:40;;;;;;;59.63;13.52;;;25.20;87.00;;;;;;5068981;28;20404;-57
2023/09/12 10:48:06;;;;;;;63.47;13.73;;;25.30;86.60;;;;;;5046349;28;20418;-57
2023/09/12 10:50:31;;;;;;;62.67;14.20;;;25.30;86.50;;;;;;5073999;28;20045;-57
2023/09/12 10:53:11;;;;;;;43.38;12.48;;;25.40;85.60;;;;;;5057901;28;20119;-55
2023/09/12 10:55:37;;;;;;;42.85;12.15;;;25.40;85.40;;;;;;5057810;28;20033;-54
2023/09/12 10:58:08;;;;;;;47.08;12.88;;;25.40;85.40;;;;;;5049541;28;20033;-55
2023/09/12 11:00:34;;;;;;;54.60;12.95;;;25.50;84.80;;;;;;5052119;28;20048;-55
2023/09/12 11:03:20;;;;;;;57.50;12.07;;;25.50;84.60;;;;;;5079459;28;20036;-55
2023/09/12 11:05:55;;;;;;;;;;;25.50;84.30;;;;;;5068723;28;20035;-55
2023/09/12 11:08:20;;;;;;;35.38;10.90;;;25.60;83.70;;;;;;5068322;28;19955;-55
2023/09/12 11:11:21;;;;;;;52.92;12.57;;;25.60;83.20;;;;;;5084904;28;20028;-55
2023/09/12 11:13:47;;;;;;;38.60;11.23;;;25.60;83.20;;;;;;5064393;28;20074;-55
2023/09/12 11:16:17;;;;;;;33.58;11.30;;;25.70;83.00;;;;;;5067262;28;20531;-55
2023/09/12 11:19:18;;;;;;;48.08;12.07;;;25.70;82.20;;;;;;5057576;28;20048;-55
2023/09/12 11:21:45;;;;;;;40.33;11.35;;;25.80;82.30;;;;;;5064024;28;20044;-56
2023/09/12 11:24:11;;;;;;;46.10;12.55;;;25.80;82.20;;;;;;5060080;28;20052;-55
2023/09/12 11:26:53;;;;;;;43.00;12.73;;;25.80;81.70;;;;;;5051313;28;20040;-55
2023/09/12 11:29:19;;;;;;;46.35;12.02;;;25.90;81.40;;;;;;5055676;28;20040;-55
2023/09/12 11:31:59;;;;;;;53.00;12.98;;;25.90;81.10;;;;;;5060607;28;20040;-55
2023/09/12 11:34:26;;;;;;;44.45;12.68;;;26.00;81.10;;;;;;5054715;28;20388;-55
2023/09/12 11:36:55;;;;;;;57.30;12.40;;;26.00;81.00;;;;;;5064747;28;20037;-55
2023/09/12 11:39:34;;;;;;;46.20;12.25;;;26.10;80.60;;;;;;5038154;28;20037;-55
2023/09/12 11:42:02;;;;;;;39.38;11.35;;;26.20;80.40;;;;;;5077597;28;20048;-55
2023/09/12 11:44:28;;;;;;;54.17;12.40;;;26.20;80.00;;;;;;5066955;28;20028;-55
2023/09/12 11:46:54;;;;;;;41.35;11.52;;;26.30;79.80;;;;;;5050627;28;20054;-55
2023/09/12 11:49:20;;;;;;;48.20;11.77;;;26.30;79.50;;;;;;5063883;28;20040;-55
2023/09/12 11:51:53;;;;;;;38.38;11.02;;;26.40;79.10;;;;;;5083679;28;20052;-55
2023/09/12 11:54:20;;;;;;;56.28;11.93;;;26.50;79.60;;;;;;5058224;28;20028;-55
2023/09/12 11:56:49;;;;;;;38.20;11.55;;;26.50;78.80;;;;;;5065734;28;20108;-55
2023/09/12 11:59:18;;;;;;;34.03;11.57;;;26.60;78.60;;;;;;5081543;28;20048;-55
2023/09/12 12:01:44;;;;;;;35.88;10.50;;;26.70;78.40;;;;;;5050377;28;20066;-55
2023/09/12 12:04:10;;;;;;;43.53;10.90;;;26.80;78.20;;;;;;5064127;28;20139;-55
2023/09/12 12:06:36;;;;;;;33.45;10.35;;;26.80;77.90;;;;;;5084080;28;20044;-55
2023/09/12 12:09:02;;;;;;;39.05;10.55;;;26.80;77.40;;;;;;5063628;28;20041;-55
2023/09/12 12:11:28;;;;;;;41.83;12.45;;;26.90;78.20;;;;;;5033832;28;20037;-55
2023/09/12 12:13:53;;;;;;;51.55;11.32;;;26.90;77.60;;;;;;5071057;28;20105;-55
2023/09/12 12:16:19;;;;;;;36.03;10.20;;;27.00;77.20;;;;;;5066490;28;20183;-55
2023/09/12 12:18:45;;;;;;;37.67;11.05;;;27.00;76.80;;;;;;5067471;28;20033;-55
2023/09/12 12:21:10;;;;;;;31.58;9.63;;;27.10;76.10;;;;;;5073441;28;20066;-55
2023/09/12 12:23:36;;;;;;;43.90;10.80;;;27.10;76.10;;;;;;5067188;28;20536;-55
2023/09/12 12:26:08;;;;;;;41.42;11.43;;;27.10;75.90;;;;;;5084559;28;20043;-55
2023/09/12 12:28:35;;;;;;;40.05;11.23;;;27.20;75.10;;;;;;5067419;28;20070;-56
2023/09/12 12:31:00;;;;;;;49.92;11.45;;;27.30;74.90;;;;;;5067217;28;20036;-55